Time;durP1;ratioP1;P1;durP2;ratioP2;P2;SDS_P1;SDS_P2;PMS_P1;PMS_P2;Temp;Humidity;BMP_temperature;BMP_pressure;BME280_temperature;BME280_humidity;BME280_pressure;Samples;Min_cycle;Max_cycle;Signal;HPM_P1;HPM_P2
2021/03/09 00:00:12;;;;;;;12.67;7.07;;;-2.30;87.70;;;;;;5032089;28;20201;-83
2021/03/09 00:03:01;;;;;;;10.33;6.70;;;-2.40;88.40;;;;;;5028478;28;20253;-82
2021/03/09 00:05:30;;;;;;;16.33;7.90;;;-2.50;88.60;;;;;;5035230;28;20198;-84
2021/03/09 00:07:57;;;;;;;11.40;7.40;;;-2.40;90.20;;;;;;5036316;28;20199;-83
2021/03/09 00:10:25;;;;;;;15.43;8.50;;;-2.50;90.00;;;;;;5043891;28;20187;-83
2021/03/09 00:12:53;;;;;;;14.20;8.27;;;-2.60;89.90;;;;;;5053187;28;20189;-82
2021/03/09 00:15:21;;;;;;;19.33;8.37;;;-2.60;90.20;;;;;;5049292;28;20199;-81
2021/03/09 00:17:48;;;;;;;16.67;9.47;;;-2.70;90.30;;;;;;5051807;28;20182;-83
2021/03/09 00:20:18;;;;;;;16.67;8.50;;;-2.70;90.50;;;;;;5057620;28;20178;-83
2021/03/09 00:22:45;;;;;;;14.87;8.27;;;-2.80;90.90;;;;;;5048405;28;20293;-83
2021/03/09 00:25:13;;;;;;;18.07;8.47;;;-2.80;91.20;;;;;;5049692;28;20205;-81
2021/03/09 00:27:42;;;;;;;14.73;8.10;;;-2.90;91.10;;;;;;5047300;28;20256;-82
2021/03/09 00:30:10;;;;;;;15.63;8.03;;;-2.90;91.30;;;;;;5037035;28;20199;-82
2021/03/09 00:32:39;;;;;;;17.90;8.37;;;-2.70;92.00;;;;;;5043245;28;20194;-81
2021/03/09 00:35:09;;;;;;;19.77;8.90;;;-2.60;91.70;;;;;;5051338;28;20217;-83
2021/03/09 00:37:38;;;;;;;15.53;8.90;;;-2.50;91.50;;;;;;5041623;28;20338;-83
2021/03/09 00:40:08;;;;;;;15.80;8.60;;;-2.70;91.70;;;;;;5035598;28;20218;-83
2021/03/09 00:42:36;;;;;;;14.57;8.83;;;-2.70;91.70;;;;;;5044570;28;20283;-83
2021/03/09 00:45:05;;;;;;;16.93;8.50;;;-2.80;91.60;;;;;;5039587;28;20204;-83
2021/03/09 00:47:52;;;;;;;16.93;8.47;;;-2.90;91.50;;;;;;5037815;28;20202;-82
2021/03/09 00:50:20;;;;;;;17.37;8.83;;;-3.10;91.90;;;;;;5042889;28;20248;-83
2021/03/09 00:52:49;;;;;;;15.93;8.47;;;-3.10;92.10;;;;;;5053206;28;20204;-83
2021/03/09 00:55:17;;;;;;;17.97;8.67;;;-3.20;92.60;;;;;;5052737;28;20212;-82
2021/03/09 00:57:53;;;;;;;16.80;8.90;;;-3.10;92.50;;;;;;5054641;28;20197;-83
2021/03/09 01:00:22;;;;;;;14.37;7.83;;;-3.20;93.00;;;;;;5049177;28;20224;-81
2021/03/09 01:02:50;;;;;;;15.57;9.17;;;-2.90;93.70;;;;;;5044067;28;20297;-83
2021/03/09 01:05:19;;;;;;;17.17;8.43;;;-2.90;93.30;;;;;;5039038;28;20569;-80
2021/03/09 01:07:47;;;;;;;16.43;9.37;;;-3.00;92.80;;;;;;5039510;28;20206;-83
2021/03/09 01:10:18;;;;;;;13.43;8.50;;;-3.10;92.60;;;;;;5045246;28;20202;-81
2021/03/09 01:12:46;;;;;;;16.10;8.30;;;-3.10;92.90;;;;;;5055756;28;20233;-83
2021/03/09 01:15:15;;;;;;;16.20;8.83;;;-3.00;93.60;;;;;;5056219;28;20182;-82
2021/03/09 01:17:43;;;;;;;18.90;9.10;;;-2.90;93.70;;;;;;5053392;28;20207;-83
2021/03/09 01:20:12;;;;;;;14.43;8.47;;;-2.90;93.60;;;;;;5043610;28;20726;-83
2021/03/09 01:22:40;;;;;;;19.47;9.77;;;-2.80;93.80;;;;;;5041350;28;20210;-82
2021/03/09 01:25:08;;;;;;;15.97;8.53;;;-2.80;93.50;;;;;;5042829;28;20243;-82
2021/03/09 01:27:37;;;;;;;18.93;8.47;;;-2.80;93.40;;;;;;5043518;28;20266;-84
2021/03/09 01:30:07;;;;;;;14.70;9.17;;;-2.90;93.20;;;;;;5044069;28;20190;-81
2021/03/09 01:32:37;;;;;;;19.13;9.00;;;-2.90;93.10;;;;;;5045380;28;20469;-80
2021/03/09 01:35:07;;;;;;;15.53;8.20;;;-3.00;92.90;;;;;;5053975;28;20207;-83
2021/03/09 01:37:35;;;;;;;13.97;8.47;;;-2.90;93.50;;;;;;5049360;28;20217;-82
2021/03/09 01:40:06;;;;;;;14.20;8.27;;;-2.80;93.60;;;;;;5055106;28;20205;-81
2021/03/09 01:42:34;;;;;;;14.43;8.53;;;-2.80;93.40;;;;;;5044299;28;20233;-81
2021/03/09 01:45:05;;;;;;;14.27;8.57;;;-2.90;93.30;;;;;;5058843;28;21223;-81
2021/03/09 01:47:33;;;;;;;15.73;8.33;;;-2.80;93.50;;;;;;5048889;28;20205;-83
2021/03/09 01:50:01;;;;;;;14.27;8.53;;;-2.90;93.30;;;;;;5057447;28;20210;-81
2021/03/09 01:52:30;;;;;;;14.90;8.10;;;-2.90;93.10;;;;;;5036906;28;20217;-79
2021/03/09 01:54:58;;;;;;;15.20;6.83;;;-2.70;93.90;;;;;;5044293;28;20544;-83
2021/03/09 01:57:25;;;;;;;12.03;6.10;;;-2.60;93.60;;;;;;5042259;28;20225;-83
2021/03/09 01:59:56;;;;;;;11.97;6.87;;;-2.30;92.70;;;;;;5036912;28;20194;-81
2021/03/09 02:02:24;;;;;;;12.90;7.60;;;-2.10;91.50;;;;;;5045438;28;20616;-83
2021/03/09 02:04:54;;;;;;;15.63;7.73;;;-2.00;90.80;;;;;;5037897;28;20227;-80
2021/03/09 02:07:22;;;;;;;14.23;7.83;;;-2.00;90.70;;;;;;5041069;28;20210;-82
2021/03/09 02:09:51;;;;;;;16.17;8.63;;;-2.00;90.70;;;;;;5047267;28;20223;-81
2021/03/09 02:12:24;;;;;;;15.27;8.50;;;-2.10;90.60;;;;;;5053084;28;20246;-82
2021/03/09 02:15:02;;;;;;;15.80;8.07;;;-2.30;90.30;;;;;;5053269;28;20254;-82
2021/03/09 02:17:36;;;;;;;14.47;8.60;;;-2.40;90.60;;;;;;5045076;28;20198;-82
2021/03/09 02:21:10;;;;;;;15.50;8.30;;;-2.40;90.90;;;;;;5052431;28;20574;-80
2021/03/09 02:24:23;;;;;;;14.73;8.67;;;-2.50;90.80;;;;;;5048730;28;20218;-83
2021/03/09 02:27:34;;;;;;;15.17;7.73;;;-2.50;91.60;;;;;;5041535;28;20199;-81
2021/03/09 02:30:25;;;;;;;15.17;8.23;;;-2.60;91.30;;;;;;5026430;28;20210;-82
2021/03/09 02:33:03;;;;;;;17.07;8.77;;;-2.70;91.40;;;;;;5042457;28;20198;-81
2021/03/09 02:35:32;;;;;;;13.10;8.50;;;-2.80;91.50;;;;;;5037752;28;20216;-83
2021/03/09 02:38:03;;;;;;;15.57;8.20;;;-2.80;92.20;;;;;;5039646;28;20228;-84
2021/03/09 02:40:34;;;;;;;21.30;9.40;;;-2.80;92.30;;;;;;5040350;28;20656;-83
2021/03/09 02:43:06;;;;;;;17.23;9.27;;;-2.80;92.50;;;;;;5039773;28;20202;-83
2021/03/09 02:45:35;;;;;;;15.87;9.23;;;-2.90;91.90;;;;;;5043496;28;20202;-83
2021/03/09 02:48:08;;;;;;;15.13;9.70;;;-2.80;92.80;;;;;;5038299;28;20201;-82
2021/03/09 02:50:36;;;;;;;19.30;8.97;;;-2.80;92.70;;;;;;5039584;28;20716;-82
2021/03/09 02:53:11;;;;;;;14.97;8.67;;;-2.80;92.90;;;;;;5037975;28;20265;-82
2021/03/09 02:55:41;;;;;;;16.57;9.43;;;-2.80;92.50;;;;;;5049584;28;20201;-82
2021/03/09 02:58:13;;;;;;;12.47;8.57;;;-2.80;92.50;;;;;;5054356;28;20194;-82
2021/03/09 03:00:43;;;;;;;14.40;8.63;;;-2.80;92.70;;;;;;5044893;28;20213;-83
2021/03/09 03:03:15;;;;;;;15.93;8.83;;;-2.70;92.80;;;;;;5055227;28;20258;-82
2021/03/09 03:05:44;;;;;;;16.20;8.43;;;-2.60;92.50;;;;;;5051769;28;20299;-81
2021/03/09 03:08:13;;;;;;;13.80;8.67;;;-2.60;91.80;;;;;;5051275;28;20416;-83
2021/03/09 03:10:43;;;;;;;18.53;8.40;;;-2.60;91.70;;;;;;5042197;28;20209;-81
2021/03/09 03:13:13;;;;;;;14.67;8.03;;;-2.70;91.60;;;;;;5035917;28;20234;-81
2021/03/09 03:15:42;;;;;;;15.33;8.13;;;-2.70;92.00;;;;;;5036537;28;20295;-83
2021/03/09 03:18:15;;;;;;;15.73;9.13;;;-2.60;92.10;;;;;;5046683;28;20195;-82
2021/03/09 03:20:44;;;;;;;16.30;8.43;;;-2.70;91.60;;;;;;5052622;28;20203;-83
2021/03/09 03:23:17;;;;;;;13.97;8.23;;;-2.70;91.80;;;;;;5042095;28;20248;-83
2021/03/09 03:25:49;;;;;;;17.13;8.40;;;-2.80;91.70;;;;;;5043947;28;20201;-82
2021/03/09 03:28:20;;;;;;;14.53;8.73;;;-2.90;91.90;;;;;;5040985;28;20201;-82
2021/03/09 03:30:50;;;;;;;14.17;8.00;;;-2.80;92.40;;;;;;5036866;28;20203;-82
2021/03/09 03:33:18;;;;;;;16.53;8.80;;;-2.90;92.20;;;;;;5042222;28;20210;-83
2021/03/09 03:35:46;;;;;;;13.13;7.63;;;-2.90;92.40;;;;;;5044157;28;20275;-84
2021/03/09 03:38:15;;;;;;;15.43;8.50;;;-2.90;92.70;;;;;;5044111;28;20203;-82
2021/03/09 03:40:43;;;;;;;15.53;8.00;;;-2.90;92.40;;;;;;5053774;28;20225;-82
2021/03/09 03:43:11;;;;;;;18.20;9.57;;;-2.90;92.40;;;;;;5055029;28;20289;-83
2021/03/09 03:45:39;;;;;;;17.67;8.20;;;-2.90;92.20;;;;;;5057070;28;20277;-83
2021/03/09 03:48:09;;;;;;;16.03;8.80;;;-3.00;92.20;;;;;;5054435;28;20247;-82
2021/03/09 03:50:37;;;;;;;14.40;8.67;;;-3.00;92.10;;;;;;5052369;28;20185;-81
2021/03/09 03:53:16;;;;;;;17.87;8.90;;;-3.10;92.20;;;;;;5045872;28;20309;-82
2021/03/09 03:56:01;;;;;;;15.43;9.60;;;-3.00;92.70;;;;;;5037022;28;20194;-83
2021/03/09 03:58:35;;;;;;;15.40;8.87;;;-3.00;92.60;;;;;;5040949;28;20225;-83
2021/03/09 04:01:06;;;;;;;13.57;8.40;;;-2.90;92.60;;;;;;5041398;28;20241;-82
2021/03/09 04:03:36;;;;;;;14.93;8.60;;;-2.90;92.20;;;;;;5043167;28;20226;-83
2021/03/09 04:06:06;;;;;;;14.40;8.43;;;-2.90;92.30;;;;;;5044675;28;20199;-83
2021/03/09 04:08:37;;;;;;;16.53;9.50;;;-3.00;91.90;;;;;;5043851;28;21021;-81
2021/03/09 04:11:06;;;;;;;12.53;7.77;;;-3.20;91.50;;;;;;5040738;28;20225;-83
2021/03/09 04:13:36;;;;;;;15.60;8.43;;;-3.40;91.80;;;;;;5037163;28;20535;-81
2021/03/09 04:16:05;;;;;;;16.43;8.50;;;-3.40;93.10;;;;;;5038834;28;20707;-82
2021/03/09 04:18:37;;;;;;;14.57;8.90;;;-3.40;92.80;;;;;;5036501;28;20194;-84
2021/03/09 04:21:06;;;;;;;16.37;8.73;;;-3.40;93.20;;;;;;5039893;28;20308;-82
2021/03/09 04:23:35;;;;;;;15.97;8.90;;;-3.40;92.90;;;;;;5048325;28;20226;-83
2021/03/09 04:26:04;;;;;;;17.27;8.97;;;-3.70;92.80;;;;;;5034813;28;20216;-80
2021/03/09 04:28:33;;;;;;;15.83;8.67;;;-3.80;93.60;;;;;;5040648;28;20199;-82
2021/03/09 04:31:02;;;;;;;17.80;9.60;;;-3.90;93.50;;;;;;5033138;28;20210;-82
2021/03/09 04:33:30;;;;;;;19.43;9.50;;;-3.90;93.60;;;;;;5040828;28;20308;-83
2021/03/09 04:36:00;;;;;;;16.80;9.97;;;-4.20;93.60;;;;;;5043015;28;20209;-81
2021/03/09 04:38:30;;;;;;;19.30;10.27;;;-4.20;94.00;;;;;;5042532;28;20559;-83
2021/03/09 04:40:59;;;;;;;16.10;9.40;;;-4.30;94.70;;;;;;5041685;28;20262;-81
2021/03/09 04:43:30;;;;;;;19.27;10.83;;;-4.20;95.30;;;;;;5039834;28;20219;-83
2021/03/09 04:46:01;;;;;;;18.20;9.80;;;-4.30;95.60;;;;;;5040111;28;20623;-83
2021/03/09 04:48:38;;;;;;;20.80;10.30;;;-4.30;95.70;;;;;;5037890;28;20205;-83
2021/03/09 04:51:11;;;;;;;15.27;9.53;;;-4.20;96.30;;;;;;5044576;28;20226;-83
2021/03/09 04:53:41;;;;;;;16.40;9.20;;;-4.30;96.20;;;;;;5052579;28;20210;-83
2021/03/09 04:56:10;;;;;;;17.90;10.33;;;-4.30;97.00;;;;;;5047845;28;20206;-82
2021/03/09 04:58:38;;;;;;;19.43;9.53;;;-4.20;97.30;;;;;;5045588;28;20199;-82
2021/03/09 05:01:06;;;;;;;16.47;9.70;;;-4.30;97.30;;;;;;5038241;28;21261;-82
2021/03/09 05:03:35;;;;;;;17.40;10.07;;;-4.20;97.00;;;;;;5037872;28;20225;-82
2021/03/09 05:06:03;;;;;;;18.97;10.03;;;-4.30;97.30;;;;;;5037443;28;20206;-83
2021/03/09 05:08:33;;;;;;;22.47;10.77;;;-4.20;98.30;;;;;;5035348;28;20241;-83
2021/03/09 05:11:01;;;;;;;18.50;10.33;;;-4.10;98.10;;;;;;5042407;28;20206;-83
2021/03/09 05:13:31;;;;;;;18.67;9.97;;;-4.20;98.00;;;;;;5037228;28;20198;-81
2021/03/09 05:16:03;;;;;;;19.40;10.57;;;-4.20;97.60;;;;;;5047679;28;20204;-82
2021/03/09 05:18:32;;;;;;;23.47;10.53;;;-4.30;97.50;;;;;;5052018;28;20190;-83
2021/03/09 05:21:15;;;;;;;22.83;10.30;;;-4.20;98.30;;;;;;5041332;28;20208;-82
2021/03/09 05:23:44;;;;;;;16.43;9.67;;;-4.10;99.10;;;;;;5048140;28;20254;-83
2021/03/09 05:26:12;;;;;;;18.40;10.20;;;-4.00;99.40;;;;;;5040669;28;20481;-81
2021/03/09 05:28:40;;;;;;;17.13;10.27;;;-4.00;99.50;;;;;;5043507;28;20205;-82
2021/03/09 05:31:09;;;;;;;19.97;11.10;;;-3.90;99.50;;;;;;5042339;28;20253;-83
2021/03/09 05:33:41;;;;;;;20.43;10.17;;;-4.00;99.10;;;;;;5044281;28;20238;-83
2021/03/09 05:36:09;;;;;;;19.10;10.70;;;-4.00;99.20;;;;;;5057393;28;20192;-82
2021/03/09 05:38:38;;;;;;;19.77;10.43;;;-3.90;99.10;;;;;;5055758;28;20503;-83
2021/03/09 05:41:07;;;;;;;20.07;10.63;;;-3.90;98.90;;;;;;5057155;28;20240;-81
2021/03/09 05:43:38;;;;;;;20.87;10.93;;;-3.90;99.40;;;;;;5055400;28;20195;-83
2021/03/09 05:46:07;;;;;;;18.40;11.17;;;-3.80;99.90;;;;;;5056214;28;20566;-82
2021/03/09 05:48:37;;;;;;;15.80;9.23;;;-3.60;99.90;;;;;;5046350;28;20327;-84
2021/03/09 05:51:06;;;;;;;18.43;10.30;;;-3.50;99.90;;;;;;5051001;28;20182;-82
2021/03/09 05:53:35;;;;;;;19.10;10.37;;;-3.30;99.90;;;;;;5049283;28;20210;-83
2021/03/09 05:56:04;;;;;;;18.57;10.57;;;-3.10;99.90;;;;;;5047606;28;20211;-82
2021/03/09 05:58:33;;;;;;;18.70;10.83;;;-3.00;98.90;;;;;;5053122;28;20245;-81
2021/03/09 06:01:03;;;;;;;19.97;10.47;;;-3.00;98.00;;;;;;5047936;28;20404;-82
2021/03/09 06:03:31;;;;;;;16.00;9.70;;;-2.80;98.10;;;;;;5048980;28;20306;-81
2021/03/09 06:05:59;;;;;;;15.77;8.53;;;-2.60;95.90;;;;;;5042933;28;20206;-82
2021/03/09 06:08:30;;;;;;;12.57;7.93;;;-2.40;93.90;;;;;;5046830;28;20421;-80
2021/03/09 06:11:12;;;;;;;14.17;7.77;;;-2.30;92.30;;;;;;5046408;28;20191;-79
2021/03/09 06:13:42;;;;;;;16.27;7.73;;;-2.20;91.30;;;;;;5043866;28;20202;-83
2021/03/09 06:16:10;;;;;;;14.83;6.57;;;-2.10;90.60;;;;;;5048665;28;20217;-78
2021/03/09 06:18:50;;;;;;;10.70;7.10;;;-2.00;90.40;;;;;;5049047;28;20232;-83
2021/03/09 06:21:19;;;;;;;15.20;6.97;;;-1.90;90.00;;;;;;5043450;28;20209;-82
2021/03/09 06:23:47;;;;;;;11.37;6.87;;;-1.90;90.00;;;;;;5045403;28;20230;-83
2021/03/09 06:26:37;;;;;;;11.53;6.73;;;-1.80;89.20;;;;;;5042994;28;20207;-81
2021/03/09 06:29:13;;;;;;;11.67;7.40;;;-1.80;89.20;;;;;;5041523;28;20207;-82
2021/03/09 06:32:01;;;;;;;14.33;7.07;;;-1.70;88.30;;;;;;5040464;28;20206;-82
2021/03/09 06:34:33;;;;;;;12.23;6.67;;;-1.60;87.50;;;;;;5034265;28;20845;-81
2021/03/09 06:37:04;;;;;;;11.83;6.47;;;-1.60;86.80;;;;;;5031762;28;20212;-80
2021/03/09 06:39:45;;;;;;;11.70;6.13;;;-1.40;87.00;;;;;;5033387;28;20422;-84
2021/03/09 06:42:15;;;;;;;11.40;6.47;;;-1.30;86.20;;;;;;5038315;28;20195;-82
2021/03/09 06:44:49;;;;;;;10.20;6.17;;;-1.20;86.30;;;;;;5041428;28;20249;-81
2021/03/09 06:47:31;;;;;;;11.93;6.97;;;-1.20;85.40;;;;;;5036894;28;20203;-81
2021/03/09 06:50:00;;;;;;;8.20;5.67;;;-1.10;85.10;;;;;;5024892;28;20236;-82
2021/03/09 06:52:31;;;;;;;8.43;5.40;;;-1.10;84.80;;;;;;5024041;28;20204;-82
2021/03/09 06:54:58;;;;;;;8.30;5.80;;;-0.80;84.90;;;;;;5022268;28;20205;-80
2021/03/09 06:57:26;;;;;;;13.70;6.70;;;-0.90;84.70;;;;;;5028778;28;20567;-81
2021/03/09 06:59:55;;;;;;;9.63;5.97;;;-0.80;84.80;;;;;;5025671;28;20450;-81
2021/03/09 07:02:25;;;;;;;9.03;6.20;;;-0.80;84.30;;;;;;5021396;28;20504;-81
2021/03/09 07:04:54;;;;;;;13.13;6.73;;;-0.70;85.00;;;;;;5024398;28;20231;-82
2021/03/09 07:07:28;;;;;;;9.90;5.90;;;-0.60;84.30;;;;;;5027112;28;20216;-80
2021/03/09 07:09:58;;;;;;;8.77;4.87;;;-0.60;83.80;;;;;;5043779;28;20211;-81
2021/03/09 07:12:26;;;;;;;12.37;5.60;;;-0.50;82.70;;;;;;5047269;28;20277;-82
2021/03/09 07:14:56;;;;;;;12.60;6.03;;;-0.50;82.50;;;;;;5046132;28;20210;-84
2021/03/09 07:17:26;;;;;;;5.03;2.73;;;-0.50;82.60;;;;;;5044194;28;20295;-82
2021/03/09 07:19:55;;;;;;;9.27;4.53;;;-0.60;81.70;;;;;;5044727;28;20228;-81
2021/03/09 07:22:29;;;;;;;8.07;4.60;;;-0.70;81.30;;;;;;5032918;28;20517;-82
2021/03/09 07:25:01;;;;;;;8.07;4.97;;;-0.60;81.20;;;;;;5019593;28;20719;-81
2021/03/09 07:27:41;;;;;;;9.00;4.90;;;-0.60;81.50;;;;;;5012869;28;20248;-81
2021/03/09 07:30:12;;;;;;;10.60;5.43;;;-0.60;81.20;;;;;;5033161;28;20213;-82
2021/03/09 07:32:42;;;;;;;9.00;4.87;;;-0.50;81.20;;;;;;5037699;28;20201;-79
2021/03/09 07:35:11;;;;;;;6.37;4.77;;;-0.50;80.90;;;;;;5026484;28;20200;-81
2021/03/09 07:37:41;;;;;;;7.37;4.17;;;-0.50;81.00;;;;;;5016931;28;20223;-81
2021/03/09 07:40:11;;;;;;;6.23;4.40;;;-0.40;80.20;;;;;;5018069;28;20212;-79
2021/03/09 07:42:39;;;;;;;6.10;4.00;;;-0.10;80.20;;;;;;5021043;28;20202;-82
2021/03/09 07:45:12;;;;;;;6.40;4.57;;;-0.30;79.80;;;;;;5015470;28;20229;-79
2021/03/09 07:47:49;;;;;;;10.23;5.70;;;-0.20;79.50;;;;;;5024202;28;20382;-79
2021/03/09 07:50:19;;;;;;;9.87;5.80;;;-0.20;79.80;;;;;;5016353;28;20215;-80
2021/03/09 07:53:05;;;;;;;11.17;5.23;;;-0.10;80.00;;;;;;5014074;28;20243;-82
2021/03/09 07:55:33;;;;;;;10.03;5.63;;;0.00;80.30;;;;;;5010890;28;20236;-82
2021/03/09 07:58:23;;;;;;;9.00;5.50;;;-0.20;79.60;;;;;;5020185;28;20222;-80
2021/03/09 08:00:57;;;;;;;9.50;5.27;;;-0.10;80.10;;;;;;5019077;28;20203;-78
2021/03/09 08:03:25;;;;;;;9.50;4.47;;;-0.10;80.20;;;;;;5014193;28;20457;-81
2021/03/09 08:05:54;;;;;;;7.23;3.63;;;0.00;79.80;;;;;;5019893;28;20770;-82
2021/03/09 08:08:54;;;;;;;5.97;3.70;;;-0.10;78.80;;;;;;5019981;28;20205;-80
2021/03/09 08:11:38;;;;;;;8.40;4.03;;;0.10;79.20;;;;;;5017614;28;20589;-82
2021/03/09 08:14:24;;;;;;;7.33;4.80;;;0.00;78.80;;;;;;5027512;28;20424;-79
2021/03/09 08:16:53;;;;;;;8.57;4.43;;;0.10;79.00;;;;;;5041572;28;20267;-80
2021/03/09 08:19:43;;;;;;;5.53;3.27;;;-0.10;78.70;;;;;;5028015;28;20239;-79
2021/03/09 08:22:12;;;;;;;7.00;3.53;;;-0.20;78.30;;;;;;5031295;28;20367;-82
2021/03/09 08:24:55;;;;;;;8.27;4.50;;;-0.20;78.40;;;;;;5028931;28;20453;-82
2021/03/09 08:27:36;;;;;;;9.53;4.40;;;-0.10;78.20;;;;;;5030357;28;20206;-80
2021/03/09 08:30:39;;;;;;;5.30;3.77;;;0.00;78.00;;;;;;5025731;28;20588;-80
2021/03/09 08:33:29;;;;;;;5.83;4.10;;;0.20;77.30;;;;;;5016893;28;20252;-79
2021/03/09 08:35:57;;;;;;;10.03;4.20;;;0.10;77.60;;;;;;5016395;28;20408;-81
2021/03/09 08:38:26;;;;;;;4.70;3.73;;;0.30;77.30;;;;;;5024614;28;20209;-81
2021/03/09 08:41:12;;;;;;;5.10;3.77;;;0.20;76.70;;;;;;5009961;28;20214;-82
2021/03/09 08:43:42;;;;;;;8.50;4.47;;;0.30;76.80;;;;;;5007289;28;20253;-79
2021/03/09 08:46:23;;;;;;;4.63;3.40;;;0.40;76.70;;;;;;5021560;28;20226;-83
2021/03/09 08:48:55;;;;;;;5.33;3.40;;;0.40;76.20;;;;;;5019648;28;20314;-78
2021/03/09 08:51:46;;;;;;;6.50;3.77;;;0.60;76.10;;;;;;5024353;28;20205;-79
2021/03/09 08:54:37;;;;;;;7.00;3.90;;;0.50;76.10;;;;;;5011413;28;20219;-80
2021/03/09 08:57:10;;;;;;;4.97;3.40;;;0.40;76.30;;;;;;5018703;28;20205;-80
2021/03/09 08:59:39;;;;;;;10.17;3.70;;;0.30;76.30;;;;;;5011226;28;20630;-82
2021/03/09 09:02:10;;;;;;;5.00;3.50;;;0.20;76.40;;;;;;5016129;28;20273;-79
2021/03/09 09:04:41;;;;;;;8.03;3.80;;;0.20;75.80;;;;;;5008919;28;20456;-80
2021/03/09 09:07:27;;;;;;;8.03;4.10;;;0.30;76.40;;;;;;5015582;28;20205;-79
2021/03/09 09:09:58;;;;;;;7.77;3.90;;;0.30;75.70;;;;;;5012696;28;20198;-80
2021/03/09 09:12:33;;;;;;;6.53;3.53;;;0.40;75.40;;;;;;5009218;28;20851;-80
2021/03/09 09:15:23;;;;;;;6.90;3.17;;;0.40;75.40;;;;;;5014742;28;20238;-78
2021/03/09 09:17:56;;;;;;;6.10;3.50;;;0.50;76.00;;;;;;5005183;28;20634;-79
2021/03/09 09:20:30;;;;;;;6.40;3.10;;;0.60;75.30;;;;;;5015005;28;20203;-78
2021/03/09 09:23:11;;;;;;;6.50;3.30;;;0.70;74.60;;;;;;5016200;28;20214;-81
2021/03/09 09:25:43;;;;;;;5.73;3.50;;;0.80;74.90;;;;;;5020314;28;20226;-81
2021/03/09 09:28:22;;;;;;;6.87;3.43;;;0.80;74.80;;;;;;5014416;28;20716;-81
2021/03/09 09:30:50;;;;;;;5.67;3.23;;;0.90;74.80;;;;;;5016914;28;20198;-80
2021/03/09 09:33:25;;;;;;;5.73;2.90;;;0.80;74.20;;;;;;5017857;28;20296;-81
2021/03/09 09:35:53;;;;;;;8.60;3.50;;;0.90;73.80;;;;;;5015409;28;21184;-81
2021/03/09 09:38:21;;;;;;;5.57;3.30;;;0.90;73.90;;;;;;5028049;28;20202;-81
2021/03/09 09:40:51;;;;;;;8.43;4.10;;;0.90;73.50;;;;;;5024491;28;20203;-82
2021/03/09 09:43:21;;;;;;;8.73;4.07;;;1.00;74.50;;;;;;5019190;28;20198;-81
2021/03/09 09:45:51;;;;;;;7.60;3.50;;;1.00;74.60;;;;;;5014883;28;20230;-83
2021/03/09 09:48:21;;;;;;;5.73;3.53;;;1.00;74.40;;;;;;5021516;28;20207;-82
2021/03/09 09:50:51;;;;;;;6.63;3.57;;;0.90;74.40;;;;;;5016840;28;20439;-80
2021/03/09 09:53:30;;;;;;;4.87;3.67;;;0.90;74.30;;;;;;5016569;28;20199;-81
2021/03/09 09:55:59;;;;;;;5.23;3.70;;;0.90;74.10;;;;;;5019307;28;20649;-81
2021/03/09 09:58:41;;;;;;;6.07;3.20;;;1.00;74.40;;;;;;5020403;28;20229;-80
2021/03/09 10:01:10;;;;;;;5.90;3.70;;;1.00;74.20;;;;;;5043212;28;20278;-80
2021/03/09 10:03:51;;;;;;;7.83;3.93;;;1.10;74.40;;;;;;5021932;28;20214;-81
2021/03/09 10:06:19;;;;;;;9.80;5.03;;;1.30;74.30;;;;;;5033906;28;20617;-81
2021/03/09 10:08:47;;;;;;;8.23;4.30;;;1.60;74.10;;;;;;5029707;28;20199;-84
2021/03/09 10:11:15;;;;;;;9.77;4.20;;;1.50;73.40;;;;;;5023672;28;20775;-82
2021/03/09 10:13:44;;;;;;;10.53;3.80;;;1.40;73.80;;;;;;5017260;28;20222;-82
2021/03/09 10:16:11;;;;;;;7.97;4.30;;;1.40;73.50;;;;;;5026674;28;20937;-83
2021/03/09 10:18:40;;;;;;;4.90;2.87;;;1.30;74.20;;;;;;5038110;28;20207;-81
2021/03/09 10:21:11;;;;;;;5.60;3.40;;;1.50;72.00;;;;;;5023775;28;20252;-81
2021/03/09 10:23:58;;;;;;;6.73;3.67;;;1.50;71.50;;;;;;5017791;28;20204;-82
2021/03/09 10:26:31;;;;;;;6.43;3.50;;;1.60;70.90;;;;;;5025427;28;20225;-81
2021/03/09 10:29:04;;;;;;;5.53;3.97;;;1.50;71.20;;;;;;5037023;28;20213;-81
2021/03/09 10:31:44;;;;;;;5.67;4.37;;;1.50;71.60;;;;;;5042348;28;20290;-82
2021/03/09 10:34:14;;;;;;;6.63;3.83;;;1.40;72.30;;;;;;5036521;28;20447;-80
2021/03/09 10:36:56;;;;;;;10.43;4.63;;;1.30;71.80;;;;;;5030929;28;20214;-81
2021/03/09 10:39:26;;;;;;;5.77;3.60;;;1.20;71.90;;;;;;5040209;28;20380;-80
2021/03/09 10:42:28;;;;;;;4.10;2.90;;;1.20;71.90;;;;;;5023909;28;20202;-83
2021/03/09 10:44:58;;;;;;;7.30;2.43;;;1.30;70.40;;;;;;5008026;28;20412;-83
2021/03/09 10:47:26;;;;;;;5.47;3.30;;;1.30;69.70;;;;;;5021502;28;20998;-81
2021/03/09 10:49:55;;;;;;;5.17;3.07;;;1.30;70.10;;;;;;5021397;28;20259;-83
2021/03/09 10:52:24;;;;;;;6.37;3.83;;;1.30;70.60;;;;;;5023888;28;20211;-81
2021/03/09 10:55:01;;;;;;;7.37;4.33;;;1.50;70.80;;;;;;5038299;28;20202;-81
2021/03/09 10:57:30;;;;;;;5.93;3.87;;;1.60;70.80;;;;;;5034845;28;20449;-80
2021/03/09 10:59:58;;;;;;;7.43;4.33;;;1.70;70.70;;;;;;5034554;28;20492;-84
2021/03/09 11:02:25;;;;;;;5.63;3.90;;;1.90;70.00;;;;;;5024609;28;20867;-81
2021/03/09 11:04:53;;;;;;;7.30;3.70;;;1.90;70.70;;;;;;5032748;28;20233;-81
2021/03/09 11:07:21;;;;;;;9.47;4.40;;;1.60;70.10;;;;;;5023751;28;20592;-83
2021/03/09 11:09:49;;;;;;;5.93;4.23;;;1.70;70.30;;;;;;5042579;28;20275;-83
2021/03/09 11:12:17;;;;;;;7.27;4.23;;;1.70;71.10;;;;;;5038804;28;20448;-83
2021/03/09 11:14:45;;;;;;;6.97;4.50;;;1.70;71.30;;;;;;5028084;28;20243;-80
2021/03/09 11:17:13;;;;;;;7.13;4.30;;;1.60;70.90;;;;;;5017108;28;20200;-81
2021/03/09 11:19:41;;;;;;;7.27;4.07;;;1.60;70.70;;;;;;5012265;28;20280;-80
2021/03/09 11:22:09;;;;;;;7.67;4.80;;;1.70;70.60;;;;;;5012883;28;20218;-80
2021/03/09 11:24:37;;;;;;;12.77;4.43;;;1.50;70.30;;;;;;5013178;28;20696;-82
2021/03/09 11:27:09;;;;;;;5.40;3.87;;;1.40;71.00;;;;;;5007809;28;20206;-81
2021/03/09 11:29:38;;;;;;;5.10;3.30;;;1.40;70.70;;;;;;5009751;28;20236;-81
2021/03/09 11:32:07;;;;;;;5.57;3.17;;;1.40;69.60;;;;;;5004440;28;20264;-84
2021/03/09 11:34:35;;;;;;;5.53;3.90;;;1.30;68.30;;;;;;5016243;28;20195;-83
2021/03/09 11:37:03;;;;;;;4.70;2.90;;;1.30;67.90;;;;;;5018082;28;20665;-81
2021/03/09 11:39:31;;;;;;;7.83;3.97;;;1.30;68.80;;;;;;5014726;28;20202;-82
2021/03/09 11:41:59;;;;;;;4.83;3.33;;;1.30;68.70;;;;;;5009611;28;20686;-81
2021/03/09 11:44:27;;;;;;;5.73;3.83;;;1.40;68.30;;;;;;5012635;28;20202;-83
2021/03/09 11:46:56;;;;;;;10.63;3.60;;;1.40;68.20;;;;;;5021329;28;20214;-81
2021/03/09 11:49:23;;;;;;;4.90;3.47;;;1.40;66.90;;;;;;5003824;28;20489;-82
2021/03/09 11:51:52;;;;;;;5.03;2.90;;;1.30;66.80;;;;;;5011594;28;20210;-84
2021/03/09 11:54:19;;;;;;;4.37;2.60;;;1.20;67.30;;;;;;5017576;28;20199;-82
2021/03/09 11:56:47;;;;;;;3.80;3.13;;;1.20;66.50;;;;;;5018096;28;20237;-82
2021/03/09 11:59:14;;;;;;;5.03;2.73;;;1.20;66.20;;;;;;5023938;28;20616;-84
2021/03/09 12:01:42;;;;;;;4.30;2.80;;;1.30;64.90;;;;;;5020165;28;20504;-82
2021/03/09 12:04:10;;;;;;;5.47;2.97;;;1.20;64.50;;;;;;5012859;28;20221;-82
2021/03/09 12:06:38;;;;;;;4.37;2.93;;;1.20;65.90;;;;;;5013943;28;20438;-83
2021/03/09 12:09:06;;;;;;;3.87;2.93;;;1.30;65.50;;;;;;5010656;28;20280;-84
2021/03/09 12:11:33;;;;;;;6.47;2.77;;;1.40;63.90;;;;;;5013191;28;20774;-85
2021/03/09 12:14:01;;;;;;;4.47;2.60;;;1.50;62.70;;;;;;5029123;28;20212;-83
2021/03/09 12:16:29;;;;;;;5.67;2.80;;;1.50;63.60;;;;;;5018129;28;20198;-85
2021/03/09 12:19:00;;;;;;;4.13;2.63;;;1.50;63.80;;;;;;5015655;28;20274;-84
2021/03/09 12:21:29;;;;;;;6.50;2.73;;;1.50;63.60;;;;;;5013818;28;20200;-80
2021/03/09 12:23:57;;;;;;;4.27;2.30;;;1.60;63.00;;;;;;5018222;28;20668;-82
2021/03/09 12:26:24;;;;;;;5.87;2.50;;;1.60;62.00;;;;;;5013629;28;20226;-82
2021/03/09 12:28:53;;;;;;;2.80;2.20;;;1.70;61.60;;;;;;5003911;28;20819;-83
2021/03/09 12:31:20;;;;;;;2.87;2.40;;;1.70;61.80;;;;;;5029671;28;20198;-85
2021/03/09 12:33:48;;;;;;;2.60;2.27;;;1.70;61.70;;;;;;5017997;28;20405;-83
2021/03/09 12:36:17;;;;;;;3.50;2.50;;;1.80;60.70;;;;;;5025742;28;20202;-84
2021/03/09 12:38:46;;;;;;;3.83;2.50;;;1.80;60.00;;;;;;5022633;28;20790;-84
2021/03/09 12:41:14;;;;;;;3.13;2.30;;;2.00;58.80;;;;;;5031385;28;20195;-83
2021/03/09 12:43:44;;;;;;;3.70;2.03;;;1.80;58.20;;;;;;5030869;28;20229;-82
2021/03/09 12:46:12;;;;;;;4.13;2.27;;;1.70;56.30;;;;;;5037623;28;20226;-83
2021/03/09 12:48:40;;;;;;;3.03;2.03;;;1.70;56.20;;;;;;5020430;28;20236;-84
2021/03/09 12:51:08;;;;;;;4.83;2.60;;;1.70;55.80;;;;;;5018319;28;20208;-81
2021/03/09 12:53:37;;;;;;;5.17;2.40;;;1.80;56.80;;;;;;5010290;28;20203;-84
2021/03/09 12:56:15;;;;;;;5.50;2.93;;;1.90;55.80;;;;;;5018248;28;20594;-82
2021/03/09 12:58:51;;;;;;;3.10;2.50;;;2.00;54.90;;;;;;5017045;28;20483;-84
2021/03/09 13:01:20;;;;;;;3.73;2.57;;;2.00;55.20;;;;;;5009545;28;20641;-82
2021/03/09 13:03:49;;;;;;;3.40;1.60;;;2.00;56.40;;;;;;5005992;28;20529;-83
2021/03/09 13:06:17;;;;;;;4.53;2.43;;;2.10;53.20;;;;;;5014703;28;20592;-84